sensor_id;sensor_type;location;lat;lon;timestamp;pressure;altitude;pressure_sealevel;temperature;humidity
20119;BME280;10220;42.716;23.306;2023-04-07T00:00:47;95011.53;;;3.36;89.52
20119;BME280;10220;42.716;23.306;2023-04-07T00:03:13;95036.34;;;3.36;89.92
20119;BME280;10220;42.716;23.306;2023-04-07T00:05:38;95035.72;;;3.26;90.75
20119;BME280;10220;42.716;23.306;2023-04-07T00:08:04;95034.91;;;3.25;90.86
20119;BME280;10220;42.716;23.306;2023-04-07T00:10:29;95046.41;;;3.29;89.79
20119;BME280;10220;42.716;23.306;2023-04-07T00:12:55;95022.78;;;3.11;89.50
20119;BME280;10220;42.716;23.306;2023-04-07T00:15:20;95025.81;;;3.23;89.28
20119;BME280;10220;42.716;23.306;2023-04-07T00:17:48;95019.88;;;3.30;88.43
20119;BME280;10220;42.716;23.306;2023-04-07T00:20:13;95033.00;;;3.27;89.43
20119;BME280;10220;42.716;23.306;2023-04-07T00:22:39;95019.69;;;3.40;89.14
20119;BME280;10220;42.716;23.306;2023-04-07T00:25:05;95034.94;;;3.17;93.80
20119;BME280;10220;42.716;23.306;2023-04-07T00:27:30;95036.22;;;2.89;100.00
20119;BME280;10220;42.716;23.306;2023-04-07T00:29:56;95035.97;;;2.12;100.00
20119;BME280;10220;42.716;23.306;2023-04-07T00:32:21;95023.22;;;2.28;100.00
20119;BME280;10220;42.716;23.306;2023-04-07T00:34:47;95046.19;;;2.12;100.00
20119;BME280;10220;42.716;23.306;2023-04-07T00:37:15;95039.53;;;1.85;100.00
20119;BME280;10220;42.716;23.306;2023-04-07T00:39:40;95044.44;;;1.79;100.00
20119;BME280;10220;42.716;23.306;2023-04-07T00:42:06;95041.31;;;1.60;100.00
20119;BME280;10220;42.716;23.306;2023-04-07T00:44:32;95032.00;;;1.76;100.00
20119;BME280;10220;42.716;23.306;2023-04-07T00:46:58;95029.81;;;1.89;100.00
20119;BME280;10220;42.716;23.306;2023-04-07T00:49:24;95028.13;;;2.05;100.00
20119;BME280;10220;42.716;23.306;2023-04-07T00:51:56;95026.94;;;1.84;100.00
20119;BME280;10220;42.716;23.306;2023-04-07T00:54:25;95036.63;;;1.80;100.00
20119;BME280;10220;42.716;23.306;2023-04-07T00:56:51;95032.78;;;1.76;100.00
20119;BME280;10220;42.716;23.306;2023-04-07T00:59:17;95040.59;;;1.75;100.00
20119;BME280;10220;42.716;23.306;2023-04-07T01:01:47;95028.84;;;1.82;100.00
20119;BME280;10220;42.716;23.306;2023-04-07T01:06:47;95032.03;;;1.84;100.00
20119;BME280;10220;42.716;23.306;2023-04-07T01:09:22;95017.47;;;1.76;100.00
20119;BME280;10220;42.716;23.306;2023-04-07T01:12:02;95018.44;;;1.68;100.00
20119;BME280;10220;42.716;23.306;2023-04-07T01:14:41;95028.16;;;1.39;100.00
20119;BME280;10220;42.716;23.306;2023-04-07T01:17:09;95015.03;;;1.59;100.00
20119;BME280;10220;42.716;23.306;2023-04-07T01:20:01;95016.22;;;1.39;100.00
20119;BME280;10220;42.716;23.306;2023-04-07T01:22:32;95013.00;;;1.71;100.00
20119;BME280;10220;42.716;23.306;2023-04-07T01:30:16;94994.44;;;1.61;100.00
20119;BME280;10220;42.716;23.306;2023-04-07T01:32:44;95015.59;;;1.86;100.00
20119;BME280;10220;42.716;23.306;2023-04-07T01:35:14;95000.66;;;2.07;100.00
20119;BME280;10220;42.716;23.306;2023-04-07T01:37:41;95012.34;;;2.26;100.00
20119;BME280;10220;42.716;23.306;2023-04-07T01:40:10;95000.22;;;2.20;100.00
20119;BME280;10220;42.716;23.306;2023-04-07T01:42:38;95018.28;;;1.77;100.00
20119;BME280;10220;42.716;23.306;2023-04-07T01:45:05;94997.31;;;1.58;100.00
20119;BME280;10220;42.716;23.306;2023-04-07T01:47:31;95011.38;;;2.03;100.00
20119;BME280;10220;42.716;23.306;2023-04-07T01:50:00;95007.56;;;2.23;100.00
20119;BME280;10220;42.716;23.306;2023-04-07T01:52:29;94997.34;;;2.15;100.00
20119;BME280;10220;42.716;23.306;2023-04-07T01:54:58;94992.84;;;1.60;100.00
20119;BME280;10220;42.716;23.306;2023-04-07T01:57:23;94991.56;;;2.05;100.00
20119;BME280;10220;42.716;23.306;2023-04-07T01:59:48;94999.97;;;1.89;100.00
20119;BME280;10220;42.716;23.306;2023-04-07T02:02:14;94995.63;;;1.74;100.00
20119;BME280;10220;42.716;23.306;2023-04-07T02:04:49;94999.91;;;1.66;100.00
20119;BME280;10220;42.716;23.306;2023-04-07T02:07:23;94984.47;;;1.83;100.00
20119;BME280;10220;42.716;23.306;2023-04-07T02:09:55;94982.16;;;2.05;100.00
20119;BME280;10220;42.716;23.306;2023-04-07T02:12:30;94987.63;;;2.26;100.00
20119;BME280;10220;42.716;23.306;2023-04-07T02:14:57;94996.09;;;2.27;100.00
20119;BME280;10220;42.716;23.306;2023-04-07T02:17:27;94995.41;;;2.17;100.00
20119;BME280;10220;42.716;23.306;2023-04-07T02:19:54;94994.47;;;2.26;100.00
20119;BME280;10220;42.716;23.306;2023-04-07T02:22:22;94995.13;;;2.20;100.00
20119;BME280;10220;42.716;23.306;2023-04-07T02:24:47;94999.56;;;2.10;100.00
20119;BME280;10220;42.716;23.306;2023-04-07T02:27:12;94998.63;;;2.27;100.00
20119;BME280;10220;42.716;23.306;2023-04-07T02:29:41;94998.63;;;2.27;100.00
20119;BME280;10220;42.716;23.306;2023-04-07T02:32:06;94995.63;;;2.39;100.00
20119;BME280;10220;42.716;23.306;2023-04-07T02:34:32;94994.94;;;2.05;100.00
20119;BME280;10220;42.716;23.306;2023-04-07T02:36:57;95003.50;;;1.88;100.00
20119;BME280;10220;42.716;23.306;2023-04-07T02:39:22;95011.94;;;1.89;100.00
20119;BME280;10220;42.716;23.306;2023-04-07T02:41:48;95011.72;;;2.24;100.00
20119;BME280;10220;42.716;23.306;2023-04-07T02:44:13;95000.81;;;1.98;100.00
20119;BME280;10220;42.716;23.306;2023-04-07T02:46:39;94998.25;;;1.90;100.00
20119;BME280;10220;42.716;23.306;2023-04-07T02:49:05;94993.72;;;1.76;100.00
20119;BME280;10220;42.716;23.306;2023-04-07T02:51:31;95005.59;;;2.01;100.00
20119;BME280;10220;42.716;23.306;2023-04-07T02:53:56;95005.88;;;1.82;100.00
20119;BME280;10220;42.716;23.306;2023-04-07T02:56:21;94998.53;;;1.87;100.00
20119;BME280;10220;42.716;23.306;2023-04-07T02:58:47;95000.31;;;1.94;100.00
20119;BME280;10220;42.716;23.306;2023-04-07T03:01:12;95001.63;;;2.06;100.00
20119;BME280;10220;42.716;23.306;2023-04-07T03:03:38;94980.91;;;2.17;100.00
20119;BME280;10220;42.716;23.306;2023-04-07T03:06:04;95005.19;;;2.29;100.00
20119;BME280;10220;42.716;23.306;2023-04-07T03:08:30;95008.91;;;1.85;100.00
20119;BME280;10220;42.716;23.306;2023-04-07T03:10:55;95007.59;;;1.81;100.00
20119;BME280;10220;42.716;23.306;2023-04-07T03:13:21;94997.50;;;1.64;100.00
20119;BME280;10220;42.716;23.306;2023-04-07T03:15:47;94995.75;;;1.65;100.00
20119;BME280;10220;42.716;23.306;2023-04-07T03:18:12;94993.75;;;1.92;100.00
20119;BME280;10220;42.716;23.306;2023-04-07T03:20:37;94992.31;;;1.89;100.00
20119;BME280;10220;42.716;23.306;2023-04-07T03:23:06;94984.03;;;1.95;100.00
20119;BME280;10220;42.716;23.306;2023-04-07T03:25:31;94983.13;;;2.12;100.00
20119;BME280;10220;42.716;23.306;2023-04-07T03:27:57;94996.56;;;2.30;100.00
20119;BME280;10220;42.716;23.306;2023-04-07T03:30:22;94987.31;;;2.29;100.00
20119;BME280;10220;42.716;23.306;2023-04-07T03:32:48;94984.75;;;2.13;100.00
20119;BME280;10220;42.716;23.306;2023-04-07T03:35:13;94996.03;;;2.03;100.00
20119;BME280;10220;42.716;23.306;2023-04-07T03:37:39;94993.97;;;2.14;100.00
20119;BME280;10220;42.716;23.306;2023-04-07T03:40:05;95006.44;;;2.09;100.00
20119;BME280;10220;42.716;23.306;2023-04-07T03:42:30;94998.63;;;2.11;100.00
20119;BME280;10220;42.716;23.306;2023-04-07T03:44:56;95001.59;;;1.98;100.00
20119;BME280;10220;42.716;23.306;2023-04-07T03:47:21;95010.38;;;1.96;100.00
20119;BME280;10220;42.716;23.306;2023-04-07T03:49:47;95001.97;;;2.19;100.00
20119;BME280;10220;42.716;23.306;2023-04-07T03:52:12;95008.25;;;2.33;100.00
20119;BME280;10220;42.716;23.306;2023-04-07T03:54:38;95010.91;;;2.15;100.00
20119;BME280;10220;42.716;23.306;2023-04-07T03:57:03;95009.28;;;2.06;100.00
20119;BME280;10220;42.716;23.306;2023-04-07T03:59:29;95001.34;;;2.17;100.00
20119;BME280;10220;42.716;23.306;2023-04-07T04:01:54;95006.91;;;2.13;100.00
20119;BME280;10220;42.716;23.306;2023-04-07T04:04:19;95012.84;;;2.21;100.00
20119;BME280;10220;42.716;23.306;2023-04-07T04:06:45;95004.25;;;2.30;100.00
20119;BME280;10220;42.716;23.306;2023-04-07T04:09:10;95010.16;;;2.38;100.00
20119;BME280;10220;42.716;23.306;2023-04-07T04:11:36;95021.63;;;2.34;100.00
20119;BME280;10220;42.716;23.306;2023-04-07T04:14:02;95035.09;;;2.60;100.00
20119;BME280;10220;42.716;23.306;2023-04-07T04:16:27;95013.47;;;2.31;100.00
20119;BME280;10220;42.716;23.306;2023-04-07T04:18:52;95027.22;;;2.22;100.00
20119;BME280;10220;42.716;23.306;2023-04-07T04:21:18;95026.75;;;2.42;100.00
20119;BME280;10220;42.716;23.306;2023-04-07T04:23:43;95017.53;;;2.49;100.00
20119;BME280;10220;42.716;23.306;2023-04-07T04:26:09;95027.56;;;2.43;100.00
20119;BME280;10220;42.716;23.306;2023-04-07T04:28:34;95031.09;;;2.66;100.00
20119;BME280;10220;42.716;23.306;2023-04-07T04:31:00;95047.69;;;2.46;100.00
20119;BME280;10220;42.716;23.306;2023-04-07T04:33:25;95035.25;;;2.59;100.00
20119;BME280;10220;42.716;23.306;2023-04-07T04:35:51;95037.31;;;2.71;100.00
20119;BME280;10220;42.716;23.306;2023-04-07T04:38:16;95030.16;;;2.75;100.00
20119;BME280;10220;42.716;23.306;2023-04-07T04:40:41;95018.75;;;2.37;100.00
20119;BME280;10220;42.716;23.306;2023-04-07T04:43:07;95039.25;;;2.85;100.00
20119;BME280;10220;42.716;23.306;2023-04-07T04:45:33;95018.78;;;2.93;100.00
20119;BME280;10220;42.716;23.306;2023-04-07T04:48:00;95044.38;;;2.93;100.00
20119;BME280;10220;42.716;23.306;2023-04-07T04:50:25;95048.38;;;2.88;100.00
20119;BME280;10220;42.716;23.306;2023-04-07T04:52:51;95051.88;;;2.63;100.00
20119;BME280;10220;42.716;23.306;2023-04-07T04:55:16;95036.00;;;2.35;100.00
20119;BME280;10220;42.716;23.306;2023-04-07T04:57:42;95049.31;;;2.94;100.00
20119;BME280;10220;42.716;23.306;2023-04-07T05:00:10;95060.97;;;2.49;100.00
20119;BME280;10220;42.716;23.306;2023-04-07T05:02:36;95048.03;;;2.67;100.00
20119;BME280;10220;42.716;23.306;2023-04-07T05:05:01;95057.66;;;2.96;100.00
20119;BME280;10220;42.716;23.306;2023-04-07T05:07:26;95059.81;;;2.52;100.00
20119;BME280;10220;42.716;23.306;2023-04-07T05:09:52;95067.38;;;2.61;100.00
20119;BME280;10220;42.716;23.306;2023-04-07T05:12:17;95061.47;;;2.77;100.00
20119;BME280;10220;42.716;23.306;2023-04-07T05:14:43;95066.91;;;2.97;100.00
20119;BME280;10220;42.716;23.306;2023-04-07T05:17:08;95070.25;;;3.30;100.00
20119;BME280;10220;42.716;23.306;2023-04-07T05:19:34;95073.28;;;3.25;100.00
20119;BME280;10220;42.716;23.306;2023-04-07T05:21:59;95066.09;;;2.97;100.00
20119;BME280;10220;42.716;23.306;2023-04-07T05:24:27;95068.50;;;2.83;100.00
20119;BME280;10220;42.716;23.306;2023-04-07T05:26:52;95065.31;;;2.89;100.00
20119;BME280;10220;42.716;23.306;2023-04-07T05:29:18;95075.53;;;3.04;100.00
20119;BME280;10220;42.716;23.306;2023-04-07T05:31:43;95069.94;;;3.17;100.00
20119;BME280;10220;42.716;23.306;2023-04-07T05:34:08;95067.22;;;3.18;100.00
20119;BME280;10220;42.716;23.306;2023-04-07T05:36:34;95074.09;;;3.26;100.00
20119;BME280;10220;42.716;23.306;2023-04-07T05:39:00;95077.44;;;3.34;100.00
20119;BME280;10220;42.716;23.306;2023-04-07T05:41:25;95075.06;;;3.33;100.00
20119;BME280;10220;42.716;23.306;2023-04-07T05:43:51;95070.25;;;3.38;100.00
20119;BME280;10220;42.716;23.306;2023-04-07T05:46:16;95052.97;;;3.32;100.00
20119;BME280;10220;42.716;23.306;2023-04-07T05:48:42;95080.94;;;3.49;100.00
20119;BME280;10220;42.716;23.306;2023-04-07T05:51:07;95077.41;;;3.50;100.00
20119;BME280;10220;42.716;23.306;2023-04-07T05:53:33;95089.09;;;3.60;100.00
20119;BME280;10220;42.716;23.306;2023-04-07T05:55:58;95085.09;;;3.50;100.00
20119;BME280;10220;42.716;23.306;2023-04-07T05:58:23;95084.94;;;3.51;100.00
20119;BME280;10220;42.716;23.306;2023-04-07T06:00:49;95079.19;;;3.57;100.00
20119;BME280;10220;42.716;23.306;2023-04-07T06:03:15;95072.31;;;3.50;100.00
20119;BME280;10220;42.716;23.306;2023-04-07T06:05:40;95077.06;;;3.69;100.00
20119;BME280;10220;42.716;23.306;2023-04-07T06:08:08;95074.59;;;3.91;100.00
20119;BME280;10220;42.716;23.306;2023-04-07T06:10:35;95071.09;;;3.84;100.00
20119;BME280;10220;42.716;23.306;2023-04-07T06:13:00;95081.63;;;3.97;100.00
20119;BME280;10220;42.716;23.306;2023-04-07T06:15:26;95085.00;;;3.98;100.00
20119;BME280;10220;42.716;23.306;2023-04-07T06:17:51;95078.88;;;4.07;100.00
20119;BME280;10220;42.716;23.306;2023-04-07T06:20:17;95057.59;;;4.36;100.00
20119;BME280;10220;42.716;23.306;2023-04-07T06:22:45;95072.50;;;4.85;99.95
20119;BME280;10220;42.716;23.306;2023-04-07T06:25:11;95061.19;;;5.76;98.50
20119;BME280;10220;42.716;23.306;2023-04-07T06:27:36;95042.88;;;5.56;88.08
20119;BME280;10220;42.716;23.306;2023-04-07T06:30:02;95057.63;;;5.91;87.93
20119;BME280;10220;42.716;23.306;2023-04-07T06:32:27;95060.69;;;6.30;84.17
20119;BME280;10220;42.716;23.306;2023-04-07T06:34:53;95056.34;;;6.44;79.87
20119;BME280;10220;42.716;23.306;2023-04-07T06:37:18;95054.31;;;7.17;81.31
20119;BME280;10220;42.716;23.306;2023-04-07T06:39:43;95058.88;;;7.69;76.16
20119;BME280;10220;42.716;23.306;2023-04-07T06:42:09;95040.66;;;7.44;71.48
20119;BME280;10220;42.716;23.306;2023-04-07T06:44:35;95062.63;;;7.40;73.63
20119;BME280;10220;42.716;23.306;2023-04-07T06:47:00;95073.66;;;7.55;71.05
20119;BME280;10220;42.716;23.306;2023-04-07T06:49:25;95070.97;;;7.96;81.25
20119;BME280;10220;42.716;23.306;2023-04-07T06:51:51;95032.75;;;7.24;81.68
20119;BME280;10220;42.716;23.306;2023-04-07T06:54:16;95058.53;;;7.79;79.23
20119;BME280;10220;42.716;23.306;2023-04-07T06:56:42;95069.03;;;8.38;83.01
20119;BME280;10220;42.716;23.306;2023-04-07T06:59:08;95067.28;;;7.78;77.85
20119;BME280;10220;42.716;23.306;2023-04-07T07:01:33;95053.69;;;7.63;77.66
20119;BME280;10220;42.716;23.306;2023-04-07T07:03:59;95058.81;;;8.64;96.48
20119;BME280;10220;42.716;23.306;2023-04-07T07:06:26;95042.81;;;7.40;70.72
20119;BME280;10220;42.716;23.306;2023-04-07T07:08:52;95072.25;;;8.47;90.70
20119;BME280;10220;42.716;23.306;2023-04-07T07:11:18;95077.94;;;7.48;77.14
20119;BME280;10220;42.716;23.306;2023-04-07T07:13:43;95064.16;;;7.89;75.08
20119;BME280;10220;42.716;23.306;2023-04-07T07:16:09;95069.13;;;7.36;63.62
20119;BME280;10220;42.716;23.306;2023-04-07T07:18:37;95070.88;;;7.56;65.63
20119;BME280;10220;42.716;23.306;2023-04-07T07:21:02;95071.28;;;7.11;56.87
20119;BME280;10220;42.716;23.306;2023-04-07T07:23:28;95074.88;;;7.10;57.64
20119;BME280;10220;42.716;23.306;2023-04-07T07:25:53;95075.91;;;7.16;55.90
20119;BME280;10220;42.716;23.306;2023-04-07T07:28:19;95079.31;;;7.02;56.00
20119;BME280;10220;42.716;23.306;2023-04-07T07:30:46;95078.22;;;6.90;54.38
20119;BME280;10220;42.716;23.306;2023-04-07T07:33:11;95078.78;;;7.06;55.03
20119;BME280;10220;42.716;23.306;2023-04-07T07:35:37;95081.47;;;7.19;55.13
20119;BME280;10220;42.716;23.306;2023-04-07T07:38:02;95091.34;;;7.16;53.89
20119;BME280;10220;42.716;23.306;2023-04-07T07:40:28;95083.84;;;7.42;54.11
20119;BME280;10220;42.716;23.306;2023-04-07T07:42:53;95075.69;;;7.38;52.57
20119;BME280;10220;42.716;23.306;2023-04-07T07:45:19;95079.00;;;7.32;52.86
20119;BME280;10220;42.716;23.306;2023-04-07T07:47:44;95076.72;;;7.44;53.00
20119;BME280;10220;42.716;23.306;2023-04-07T07:50:10;95084.19;;;7.59;53.26
20119;BME280;10220;42.716;23.306;2023-04-07T07:52:36;95077.81;;;7.56;52.63
20119;BME280;10220;42.716;23.306;2023-04-07T07:55:02;95081.44;;;7.61;52.19
20119;BME280;10220;42.716;23.306;2023-04-07T07:57:27;95086.75;;;7.59;51.39
20119;BME280;10220;42.716;23.306;2023-04-07T07:59:55;95094.09;;;7.35;52.20
20119;BME280;10220;42.716;23.306;2023-04-07T08:02:20;95066.19;;;7.18;51.83
20119;BME280;10220;42.716;23.306;2023-04-07T08:04:46;95075.38;;;7.48;51.64
20119;BME280;10220;42.716;23.306;2023-04-07T08:07:12;95054.19;;;7.25;52.25
20119;BME280;10220;42.716;23.306;2023-04-07T08:09:37;95083.38;;;7.32;53.20
20119;BME280;10220;42.716;23.306;2023-04-07T08:12:03;95073.69;;;7.34;52.60
20119;BME280;10220;42.716;23.306;2023-04-07T08:14:28;95086.56;;;7.34;52.47
20119;BME280;10220;42.716;23.306;2023-04-07T08:16:54;95095.25;;;7.54;52.27
20119;BME280;10220;42.716;23.306;2023-04-07T08:19:19;95078.09;;;7.94;51.86
20119;BME280;10220;42.716;23.306;2023-04-07T08:21:45;95088.84;;;7.98;51.49
20119;BME280;10220;42.716;23.306;2023-04-07T08:24:10;95092.78;;;7.66;51.96
20119;BME280;10220;42.716;23.306;2023-04-07T08:26:37;95093.28;;;7.35;51.43
20119;BME280;10220;42.716;23.306;2023-04-07T08:29:02;95094.69;;;7.37;52.24
20119;BME280;10220;42.716;23.306;2023-04-07T08:31:28;95085.06;;;7.46;51.97
20119;BME280;10220;42.716;23.306;2023-04-07T08:33:54;95079.44;;;7.36;52.52
20119;BME280;10220;42.716;23.306;2023-04-07T08:36:25;95092.00;;;7.72;52.84
20119;BME280;10220;42.716;23.306;2023-04-07T08:38:52;95073.97;;;7.72;52.34
20119;BME280;10220;42.716;23.306;2023-04-07T08:41:23;95081.59;;;7.80;51.10
20119;BME280;10220;42.716;23.306;2023-04-07T08:43:52;95090.78;;;7.96;51.87
20119;BME280;10220;42.716;23.306;2023-04-07T08:46:37;95068.88;;;8.13;50.85
20119;BME280;10220;42.716;23.306;2023-04-07T08:49:12;95076.66;;;8.19;49.63
20119;BME280;10220;42.716;23.306;2023-04-07T08:51:44;95091.56;;;8.17;50.72
20119;BME280;10220;42.716;23.306;2023-04-07T08:54:16;95092.16;;;8.19;49.74
20119;BME280;10220;42.716;23.306;2023-04-07T08:56:43;95086.69;;;8.41;51.95
20119;BME280;10220;42.716;23.306;2023-04-07T08:59:11;95077.88;;;8.63;49.96
20119;BME280;10220;42.716;23.306;2023-04-07T09:01:37;95046.72;;;8.24;50.92
20119;BME280;10220;42.716;23.306;2023-04-07T09:04:04;95091.22;;;8.26;49.97
20119;BME280;10220;42.716;23.306;2023-04-07T09:06:30;95096.56;;;7.70;50.40
20119;BME280;10220;42.716;23.306;2023-04-07T09:09:00;95067.44;;;7.76;50.83
20119;BME280;10220;42.716;23.306;2023-04-07T09:11:26;95088.63;;;8.26;50.86
20119;BME280;10220;42.716;23.306;2023-04-07T09:13:53;95091.59;;;8.64;51.20
20119;BME280;10220;42.716;23.306;2023-04-07T09:16:19;95096.06;;;8.95;48.96
20119;BME280;10220;42.716;23.306;2023-04-07T09:18:45;95060.06;;;8.87;48.80
20119;BME280;10220;42.716;23.306;2023-04-07T09:21:10;95079.25;;;9.44;48.34
20119;BME280;10220;42.716;23.306;2023-04-07T09:23:38;95083.81;;;9.36;49.01
20119;BME280;10220;42.716;23.306;2023-04-07T09:28:43;95073.81;;;8.48;49.33
20119;BME280;10220;42.716;23.306;2023-04-07T09:31:09;95091.22;;;8.73;49.28
20119;BME280;10220;42.716;23.306;2023-04-07T09:33:35;95086.06;;;8.73;50.10
20119;BME280;10220;42.716;23.306;2023-04-07T09:36:02;95075.38;;;8.95;49.15
20119;BME280;10220;42.716;23.306;2023-04-07T09:38:35;95072.78;;;8.82;49.89
20119;BME280;10220;42.716;23.306;2023-04-07T09:41:11;95093.28;;;8.44;49.53
20119;BME280;10220;42.716;23.306;2023-04-07T09:43:39;95096.53;;;8.18;51.14
20119;BME280;10220;42.716;23.306;2023-04-07T09:46:10;95101.06;;;8.57;50.26
20119;BME280;10220;42.716;23.306;2023-04-07T09:48:36;95107.44;;;8.20;49.99
20119;BME280;10220;42.716;23.306;2023-04-07T09:51:12;95109.31;;;8.06;50.97
20119;BME280;10220;42.716;23.306;2023-04-07T09:53:50;95111.28;;;8.04;51.28
20119;BME280;10220;42.716;23.306;2023-04-07T09:56:18;95106.91;;;8.31;51.11
20119;BME280;10220;42.716;23.306;2023-04-07T09:58:48;95102.75;;;8.77;51.29
20119;BME280;10220;42.716;23.306;2023-04-07T10:01:15;95104.59;;;8.89;50.76
20119;BME280;10220;42.716;23.306;2023-04-07T10:03:42;95105.94;;;8.73;50.44
20119;BME280;10220;42.716;23.306;2023-04-07T10:06:08;95110.13;;;8.40;51.42
20119;BME280;10220;42.716;23.306;2023-04-07T10:08:35;95102.16;;;8.81;51.57
20119;BME280;10220;42.716;23.306;2023-04-07T10:11:01;95107.19;;;9.02;51.23
20119;BME280;10220;42.716;23.306;2023-04-07T10:13:32;95080.06;;;8.60;51.21
20119;BME280;10220;42.716;23.306;2023-04-07T10:15:58;95096.47;;;8.99;51.85
20119;BME280;10220;42.716;23.306;2023-04-07T10:18:28;95110.66;;;8.63;52.51
20119;BME280;10220;42.716;23.306;2023-04-07T10:20:56;95100.25;;;8.50;53.55
20119;BME280;10220;42.716;23.306;2023-04-07T10:23:28;95105.34;;;8.77;53.08
20119;BME280;10220;42.716;23.306;2023-04-07T10:25:57;95052.72;;;8.78;53.27
20119;BME280;10220;42.716;23.306;2023-04-07T10:28:25;95106.06;;;9.37;53.95
20119;BME280;10220;42.716;23.306;2023-04-07T10:30:52;95097.50;;;9.11;54.12
20119;BME280;10220;42.716;23.306;2023-04-07T10:33:47;95090.34;;;9.32;53.21
20119;BME280;10220;42.716;23.306;2023-04-07T10:36:13;95106.28;;;9.42;53.04
20119;BME280;10220;42.716;23.306;2023-04-07T10:38:39;95099.88;;;9.19;53.35
20119;BME280;10220;42.716;23.306;2023-04-07T10:41:35;95109.22;;;9.07;52.64
20119;BME280;10220;42.716;23.306;2023-04-07T10:44:07;95111.94;;;8.86;53.10
20119;BME280;10220;42.716;23.306;2023-04-07T10:49:15;95108.00;;;8.96;53.28
20119;BME280;10220;42.716;23.306;2023-04-07T10:54:35;95109.00;;;9.02;53.99
20119;BME280;10220;42.716;23.306;2023-04-07T10:59:27;95118.78;;;9.26;54.81
20119;BME280;10220;42.716;23.306;2023-04-07T11:04:38;95106.63;;;9.07;55.21
20119;BME280;10220;42.716;23.306;2023-04-07T11:07:04;95111.03;;;9.38;55.25
20119;BME280;10220;42.716;23.306;2023-04-07T11:09:29;95115.22;;;9.33;54.23
20119;BME280;10220;42.716;23.306;2023-04-07T11:11:54;95111.97;;;8.99;54.26
20119;BME280;10220;42.716;23.306;2023-04-07T11:14:27;95121.50;;;9.05;54.46
20119;BME280;10220;42.716;23.306;2023-04-07T11:16:53;95130.50;;;9.28;55.19
20119;BME280;10220;42.716;23.306;2023-04-07T11:19:19;95107.53;;;8.86;55.25
20119;BME280;10220;42.716;23.306;2023-04-07T11:21:44;95107.41;;;9.07;57.12
20119;BME280;10220;42.716;23.306;2023-04-07T11:24:10;95116.44;;;9.50;55.68
20119;BME280;10220;42.716;23.306;2023-04-07T11:26:55;95120.03;;;9.62;55.44
20119;BME280;10220;42.716;23.306;2023-04-07T11:29:27;95130.81;;;10.04;55.50
20119;BME280;10220;42.716;23.306;2023-04-07T11:31:53;95121.25;;;9.98;53.84
20119;BME280;10220;42.716;23.306;2023-04-07T11:34:20;95134.38;;;10.09;53.38
20119;BME280;10220;42.716;23.306;2023-04-07T11:36:45;95127.38;;;9.91;52.62
20119;BME280;10220;42.716;23.306;2023-04-07T11:39:18;95126.00;;;9.69;52.98
20119;BME280;10220;42.716;23.306;2023-04-07T11:41:48;95131.50;;;9.33;54.22
20119;BME280;10220;42.716;23.306;2023-04-07T11:44:14;95124.41;;;9.55;55.19
20119;BME280;10220;42.716;23.306;2023-04-07T11:49:21;95134.72;;;9.42;56.18
20119;BME280;10220;42.716;23.306;2023-04-07T11:52:03;95113.44;;;9.21;55.44
20119;BME280;10220;42.716;23.306;2023-04-07T11:57:04;95129.84;;;9.00;57.17
20119;BME280;10220;42.716;23.306;2023-04-07T11:59:30;95117.38;;;9.17;58.95
20119;BME280;10220;42.716;23.306;2023-04-07T12:01:55;95121.78;;;9.35;57.73
20119;BME280;10220;42.716;23.306;2023-04-07T12:04:21;95129.97;;;9.84;57.42
20119;BME280;10220;42.716;23.306;2023-04-07T12:06:47;95125.22;;;9.81;55.27
20119;BME280;10220;42.716;23.306;2023-04-07T12:09:30;95125.00;;;9.89;56.03
20119;BME280;10220;42.716;23.306;2023-04-07T12:11:57;95116.03;;;9.66;56.60
20119;BME280;10220;42.716;23.306;2023-04-07T12:14:24;95125.22;;;9.94;55.53
20119;BME280;10220;42.716;23.306;2023-04-07T12:16:49;95113.84;;;10.34;53.81
20119;BME280;10220;42.716;23.306;2023-04-07T12:19:15;95119.16;;;10.52;52.91
20119;BME280;10220;42.716;23.306;2023-04-07T12:21:41;95116.06;;;10.24;53.86
20119;BME280;10220;42.716;23.306;2023-04-07T12:24:06;95119.03;;;9.82;53.87
20119;BME280;10220;42.716;23.306;2023-04-07T12:26:31;95124.41;;;9.93;54.65
20119;BME280;10220;42.716;23.306;2023-04-07T12:28:57;95126.41;;;10.17;54.92
20119;BME280;10220;42.716;23.306;2023-04-07T12:31:29;95128.00;;;10.25;52.99
20119;BME280;10220;42.716;23.306;2023-04-07T12:33:55;95128.41;;;9.83;53.80
20119;BME280;10220;42.716;23.306;2023-04-07T12:36:21;95136.56;;;9.99;55.94
20119;BME280;10220;42.716;23.306;2023-04-07T12:38:46;95130.38;;;9.75;55.71
20119;BME280;10220;42.716;23.306;2023-04-07T12:41:12;95113.47;;;9.66;56.13
20119;BME280;10220;42.716;23.306;2023-04-07T12:43:37;95124.78;;;9.84;55.54
20119;BME280;10220;42.716;23.306;2023-04-07T12:46:03;95117.88;;;10.17;55.37
20119;BME280;10220;42.716;23.306;2023-04-07T12:48:28;95131.00;;;9.90;54.80
20119;BME280;10220;42.716;23.306;2023-04-07T12:50:54;95129.81;;;9.92;55.18
20119;BME280;10220;42.716;23.306;2023-04-07T12:53:19;95117.66;;;9.80;55.75
20119;BME280;10220;42.716;23.306;2023-04-07T12:55:46;95122.22;;;9.78;54.92
20119;BME280;10220;42.716;23.306;2023-04-07T12:58:12;95131.00;;;9.70;55.08
20119;BME280;10220;42.716;23.306;2023-04-07T13:00:38;95112.69;;;9.72;55.08
20119;BME280;10220;42.716;23.306;2023-04-07T13:03:04;95130.81;;;10.10;54.57
20119;BME280;10220;42.716;23.306;2023-04-07T13:05:29;95132.56;;;9.84;53.97
20119;BME280;10220;42.716;23.306;2023-04-07T13:07:54;95129.59;;;9.93;54.41
20119;BME280;10220;42.716;23.306;2023-04-07T13:10:20;95105.91;;;9.84;53.92
20119;BME280;10220;42.716;23.306;2023-04-07T13:12:45;95136.16;;;9.77;54.91
20119;BME280;10220;42.716;23.306;2023-04-07T13:15:11;95130.97;;;9.51;55.65
20119;BME280;10220;42.716;23.306;2023-04-07T13:17:37;95122.78;;;9.34;56.51
20119;BME280;10220;42.716;23.306;2023-04-07T13:20:04;95135.69;;;9.34;55.98